sensor_id;sensor_type;location;lat;lon;timestamp;temperature;humidity
12893;DHT22;6514;48.606;9.222;2022-12-07T00:01:11;3.20;99.90
12893;DHT22;6514;48.606;9.222;2022-12-07T00:03:39;3.20;99.90
12893;DHT22;6514;48.606;9.222;2022-12-07T00:06:07;3.20;99.90
12893;DHT22;6514;48.606;9.222;2022-12-07T00:08:35;3.20;99.90
12893;DHT22;6514;48.606;9.222;2022-12-07T00:11:03;3.20;99.90
12893;DHT22;6514;48.606;9.222;2022-12-07T00:13:30;3.20;99.90
12893;DHT22;6514;48.606;9.222;2022-12-07T00:16:01;3.20;99.90
12893;DHT22;6514;48.606;9.222;2022-12-07T00:18:29;3.20;99.90
12893;DHT22;6514;48.606;9.222;2022-12-07T00:20:59;3.20;99.90
12893;DHT22;6514;48.606;9.222;2022-12-07T00:23:26;3.20;99.90
12893;DHT22;6514;48.606;9.222;2022-12-07T00:25:53;3.20;99.90
12893;DHT22;6514;48.606;9.222;2022-12-07T00:28:20;3.20;99.90
12893;DHT22;6514;48.606;9.222;2022-12-07T00:30:47;3.20;99.90
12893;DHT22;6514;48.606;9.222;2022-12-07T00:33:15;3.20;99.90
12893;DHT22;6514;48.606;9.222;2022-12-07T00:35:42;3.20;99.90
12893;DHT22;6514;48.606;9.222;2022-12-07T00:38:09;3.20;99.90
12893;DHT22;6514;48.606;9.222;2022-12-07T00:40:36;3.20;99.90
12893;DHT22;6514;48.606;9.222;2022-12-07T00:43:03;3.20;99.90
12893;DHT22;6514;48.606;9.222;2022-12-07T00:45:30;3.20;99.90
12893;DHT22;6514;48.606;9.222;2022-12-07T00:47:56;3.20;99.90
12893;DHT22;6514;48.606;9.222;2022-12-07T00:50:25;3.30;99.90
12893;DHT22;6514;48.606;9.222;2022-12-07T00:52:52;3.20;99.90
12893;DHT22;6514;48.606;9.222;2022-12-07T00:55:18;3.20;99.90
12893;DHT22;6514;48.606;9.222;2022-12-07T00:57:45;3.20;99.90
12893;DHT22;6514;48.606;9.222;2022-12-07T01:00:13;3.30;99.90
12893;DHT22;6514;48.606;9.222;2022-12-07T01:02:40;3.30;99.90
12893;DHT22;6514;48.606;9.222;2022-12-07T01:05:07;3.30;99.90
12893;DHT22;6514;48.606;9.222;2022-12-07T01:07:37;3.30;99.90
12893;DHT22;6514;48.606;9.222;2022-12-07T01:10:05;3.30;99.90
12893;DHT22;6514;48.606;9.222;2022-12-07T01:12:32;3.30;99.90
12893;DHT22;6514;48.606;9.222;2022-12-07T01:14:59;3.30;99.90
12893;DHT22;6514;48.606;9.222;2022-12-07T01:17:26;3.30;99.90
12893;DHT22;6514;48.606;9.222;2022-12-07T01:19:54;3.30;99.90
12893;DHT22;6514;48.606;9.222;2022-12-07T01:22:21;3.30;99.90
12893;DHT22;6514;48.606;9.222;2022-12-07T01:24:49;3.30;99.90
12893;DHT22;6514;48.606;9.222;2022-12-07T01:27:16;3.30;99.90
12893;DHT22;6514;48.606;9.222;2022-12-07T01:29:43;3.30;99.90
12893;DHT22;6514;48.606;9.222;2022-12-07T01:32:10;3.20;99.90
12893;DHT22;6514;48.606;9.222;2022-12-07T01:34:37;3.20;99.90
12893;DHT22;6514;48.606;9.222;2022-12-07T01:37:04;3.20;99.90
12893;DHT22;6514;48.606;9.222;2022-12-07T01:39:31;3.20;99.90
12893;DHT22;6514;48.606;9.222;2022-12-07T01:41:59;3.20;99.90
12893;DHT22;6514;48.606;9.222;2022-12-07T01:44:26;3.20;99.90
12893;DHT22;6514;48.606;9.222;2022-12-07T01:46:56;3.20;99.90
12893;DHT22;6514;48.606;9.222;2022-12-07T01:49:29;3.30;99.90
12893;DHT22;6514;48.606;9.222;2022-12-07T01:52:03;3.30;99.90
12893;DHT22;6514;48.606;9.222;2022-12-07T01:54:34;3.30;99.90
12893;DHT22;6514;48.606;9.222;2022-12-07T01:57:04;3.30;99.90
12893;DHT22;6514;48.606;9.222;2022-12-07T01:59:33;3.30;99.90
12893;DHT22;6514;48.606;9.222;2022-12-07T02:02:02;3.30;99.90
12893;DHT22;6514;48.606;9.222;2022-12-07T02:04:30;3.30;99.90
12893;DHT22;6514;48.606;9.222;2022-12-07T02:06:57;3.30;99.90
12893;DHT22;6514;48.606;9.222;2022-12-07T02:09:24;3.30;99.90
12893;DHT22;6514;48.606;9.222;2022-12-07T02:11:52;3.40;99.90
12893;DHT22;6514;48.606;9.222;2022-12-07T02:14:21;3.30;99.90
12893;DHT22;6514;48.606;9.222;2022-12-07T02:17:00;3.30;99.90
12893;DHT22;6514;48.606;9.222;2022-12-07T02:22:49;3.30;99.90
12893;DHT22;6514;48.606;9.222;2022-12-07T02:25:25;3.30;99.90
12893;DHT22;6514;48.606;9.222;2022-12-07T02:27:58;3.30;99.90
12893;DHT22;6514;48.606;9.222;2022-12-07T02:30:32;3.30;99.90
12893;DHT22;6514;48.606;9.222;2022-12-07T02:33:03;3.30;99.90
12893;DHT22;6514;48.606;9.222;2022-12-07T02:35:33;3.30;99.90
12893;DHT22;6514;48.606;9.222;2022-12-07T02:38:06;3.30;99.90
12893;DHT22;6514;48.606;9.222;2022-12-07T02:40:39;3.20;99.90
12893;DHT22;6514;48.606;9.222;2022-12-07T02:43:11;3.20;99.90
12893;DHT22;6514;48.606;9.222;2022-12-07T02:45:41;3.20;99.90
12893;DHT22;6514;48.606;9.222;2022-12-07T02:48:10;3.20;99.90
12893;DHT22;6514;48.606;9.222;2022-12-07T02:50:38;3.10;99.90
12893;DHT22;6514;48.606;9.222;2022-12-07T02:53:05;3.10;99.90
12893;DHT22;6514;48.606;9.222;2022-12-07T02:55:37;3.10;99.90
12893;DHT22;6514;48.606;9.222;2022-12-07T02:58:16;3.10;99.90
12893;DHT22;6514;48.606;9.222;2022-12-07T03:00:54;3.10;99.90
12893;DHT22;6514;48.606;9.222;2022-12-07T03:03:23;3.00;99.90
12893;DHT22;6514;48.606;9.222;2022-12-07T03:06:08;3.00;99.90
12893;DHT22;6514;48.606;9.222;2022-12-07T03:08:47;2.90;99.90
12893;DHT22;6514;48.606;9.222;2022-12-07T03:11:22;2.90;99.90
12893;DHT22;6514;48.606;9.222;2022-12-07T03:13:58;2.90;99.90
12893;DHT22;6514;48.606;9.222;2022-12-07T03:16:31;2.80;99.90
12893;DHT22;6514;48.606;9.222;2022-12-07T03:19:02;2.90;99.90
12893;DHT22;6514;48.606;9.222;2022-12-07T03:21:33;2.80;99.90
12893;DHT22;6514;48.606;9.222;2022-12-07T03:24:04;2.70;99.90
12893;DHT22;6514;48.606;9.222;2022-12-07T03:26:35;2.70;99.90
12893;DHT22;6514;48.606;9.222;2022-12-07T03:29:07;2.70;99.90
12893;DHT22;6514;48.606;9.222;2022-12-07T03:31:40;2.70;99.90
12893;DHT22;6514;48.606;9.222;2022-12-07T03:34:11;2.60;99.90
12893;DHT22;6514;48.606;9.222;2022-12-07T03:36:43;2.60;99.90
12893;DHT22;6514;48.606;9.222;2022-12-07T03:39:17;2.60;99.90
12893;DHT22;6514;48.606;9.222;2022-12-07T03:41:48;2.60;99.90
12893;DHT22;6514;48.606;9.222;2022-12-07T03:44:16;2.60;99.90
12893;DHT22;6514;48.606;9.222;2022-12-07T03:46:50;2.60;99.90
12893;DHT22;6514;48.606;9.222;2022-12-07T03:49:23;2.50;99.90
12893;DHT22;6514;48.606;9.222;2022-12-07T03:51:54;2.50;99.90
12893;DHT22;6514;48.606;9.222;2022-12-07T03:54:26;2.50;99.90
12893;DHT22;6514;48.606;9.222;2022-12-07T03:56:56;2.50;99.90
12893;DHT22;6514;48.606;9.222;2022-12-07T03:59:24;2.50;99.90
12893;DHT22;6514;48.606;9.222;2022-12-07T04:01:55;2.50;99.90
12893;DHT22;6514;48.606;9.222;2022-12-07T04:04:23;2.50;99.90
12893;DHT22;6514;48.606;9.222;2022-12-07T04:06:51;2.40;99.90
12893;DHT22;6514;48.606;9.222;2022-12-07T04:09:18;2.40;99.90
12893;DHT22;6514;48.606;9.222;2022-12-07T04:11:45;2.40;99.90
12893;DHT22;6514;48.606;9.222;2022-12-07T04:14:12;2.40;99.90
12893;DHT22;6514;48.606;9.222;2022-12-07T04:16:45;2.40;99.90
12893;DHT22;6514;48.606;9.222;2022-12-07T04:19:14;2.40;99.90
12893;DHT22;6514;48.606;9.222;2022-12-07T04:21:41;2.40;99.90
12893;DHT22;6514;48.606;9.222;2022-12-07T04:24:08;2.30;99.90
12893;DHT22;6514;48.606;9.222;2022-12-07T04:26:35;2.40;99.90
12893;DHT22;6514;48.606;9.222;2022-12-07T04:29:02;2.30;99.90
12893;DHT22;6514;48.606;9.222;2022-12-07T04:31:29;2.30;99.90
12893;DHT22;6514;48.606;9.222;2022-12-07T04:33:56;2.30;99.90
12893;DHT22;6514;48.606;9.222;2022-12-07T04:36:24;2.30;99.90
12893;DHT22;6514;48.606;9.222;2022-12-07T04:38:53;2.30;99.90
12893;DHT22;6514;48.606;9.222;2022-12-07T04:41:21;2.20;99.90
12893;DHT22;6514;48.606;9.222;2022-12-07T04:43:53;2.20;99.90
12893;DHT22;6514;48.606;9.222;2022-12-07T04:46:20;2.30;99.90
12893;DHT22;6514;48.606;9.222;2022-12-07T04:48:47;2.20;99.90
12893;DHT22;6514;48.606;9.222;2022-12-07T04:51:16;2.30;99.90
12893;DHT22;6514;48.606;9.222;2022-12-07T04:53:46;2.30;99.90
12893;DHT22;6514;48.606;9.222;2022-12-07T04:56:13;2.20;99.90
12893;DHT22;6514;48.606;9.222;2022-12-07T04:58:40;2.20;99.90
12893;DHT22;6514;48.606;9.222;2022-12-07T05:01:07;2.10;99.90
12893;DHT22;6514;48.606;9.222;2022-12-07T05:03:35;2.10;99.90
12893;DHT22;6514;48.606;9.222;2022-12-07T05:06:03;2.10;99.90
12893;DHT22;6514;48.606;9.222;2022-12-07T05:08:30;2.00;99.90
12893;DHT22;6514;48.606;9.222;2022-12-07T05:10:58;2.00;99.90
12893;DHT22;6514;48.606;9.222;2022-12-07T05:13:25;1.90;99.90
12893;DHT22;6514;48.606;9.222;2022-12-07T05:15:52;1.90;99.90
12893;DHT22;6514;48.606;9.222;2022-12-07T05:18:18;1.80;99.90
12893;DHT22;6514;48.606;9.222;2022-12-07T05:20:46;1.70;99.90
12893;DHT22;6514;48.606;9.222;2022-12-07T05:23:13;1.60;99.90
12893;DHT22;6514;48.606;9.222;2022-12-07T05:25:40;1.60;99.90
12893;DHT22;6514;48.606;9.222;2022-12-07T05:28:08;1.50;99.90
12893;DHT22;6514;48.606;9.222;2022-12-07T05:30:35;1.40;99.90
12893;DHT22;6514;48.606;9.222;2022-12-07T05:33:02;1.40;99.90
12893;DHT22;6514;48.606;9.222;2022-12-07T05:35:30;1.30;99.90
12893;DHT22;6514;48.606;9.222;2022-12-07T05:37:57;1.30;99.90
12893;DHT22;6514;48.606;9.222;2022-12-07T05:40:24;1.30;99.90
12893;DHT22;6514;48.606;9.222;2022-12-07T05:42:51;1.30;99.90
12893;DHT22;6514;48.606;9.222;2022-12-07T05:45:18;1.30;99.90
12893;DHT22;6514;48.606;9.222;2022-12-07T05:47:45;1.30;99.90
12893;DHT22;6514;48.606;9.222;2022-12-07T05:50:12;1.30;99.90
12893;DHT22;6514;48.606;9.222;2022-12-07T05:52:39;1.30;99.90
12893;DHT22;6514;48.606;9.222;2022-12-07T05:55:06;1.30;99.90
12893;DHT22;6514;48.606;9.222;2022-12-07T05:57:33;1.30;99.90
12893;DHT22;6514;48.606;9.222;2022-12-07T06:00:00;1.30;99.90
12893;DHT22;6514;48.606;9.222;2022-12-07T06:02:27;1.40;99.90
12893;DHT22;6514;48.606;9.222;2022-12-07T06:04:54;1.30;99.90
12893;DHT22;6514;48.606;9.222;2022-12-07T06:07:21;1.20;99.90
12893;DHT22;6514;48.606;9.222;2022-12-07T06:09:48;1.10;99.90
12893;DHT22;6514;48.606;9.222;2022-12-07T06:12:15;1.10;99.90
12893;DHT22;6514;48.606;9.222;2022-12-07T06:14:59;1.10;99.90
12893;DHT22;6514;48.606;9.222;2022-12-07T06:17:27;1.00;99.90
12893;DHT22;6514;48.606;9.222;2022-12-07T06:19:54;0.90;99.90
12893;DHT22;6514;48.606;9.222;2022-12-07T06:22:21;0.90;99.90
12893;DHT22;6514;48.606;9.222;2022-12-07T06:24:48;0.80;99.90
12893;DHT22;6514;48.606;9.222;2022-12-07T06:27:15;0.70;99.90
12893;DHT22;6514;48.606;9.222;2022-12-07T06:29:42;0.60;99.90
12893;DHT22;6514;48.606;9.222;2022-12-07T06:32:08;0.50;99.90
12893;DHT22;6514;48.606;9.222;2022-12-07T06:34:37;0.50;99.90
12893;DHT22;6514;48.606;9.222;2022-12-07T06:37:04;0.50;99.90
12893;DHT22;6514;48.606;9.222;2022-12-07T06:39:31;0.50;99.90
12893;DHT22;6514;48.606;9.222;2022-12-07T06:41:58;0.50;99.90
12893;DHT22;6514;48.606;9.222;2022-12-07T06:44:25;0.60;99.90
12893;DHT22;6514;48.606;9.222;2022-12-07T06:46:52;0.60;99.90
12893;DHT22;6514;48.606;9.222;2022-12-07T06:49:19;0.70;99.90
12893;DHT22;6514;48.606;9.222;2022-12-07T06:51:47;0.70;99.90
12893;DHT22;6514;48.606;9.222;2022-12-07T06:54:15;0.80;99.90
12893;DHT22;6514;48.606;9.222;2022-12-07T06:56:42;0.80;99.90
12893;DHT22;6514;48.606;9.222;2022-12-07T06:59:09;0.80;99.90
12893;DHT22;6514;48.606;9.222;2022-12-07T07:01:36;0.80;99.90
12893;DHT22;6514;48.606;9.222;2022-12-07T07:04:03;0.80;99.90
12893;DHT22;6514;48.606;9.222;2022-12-07T07:06:30;0.90;99.90
12893;DHT22;6514;48.606;9.222;2022-12-07T07:08:59;0.90;99.90
12893;DHT22;6514;48.606;9.222;2022-12-07T07:11:25;1.00;99.90
12893;DHT22;6514;48.606;9.222;2022-12-07T07:13:52;1.10;99.90
12893;DHT22;6514;48.606;9.222;2022-12-07T07:16:22;1.20;99.90
12893;DHT22;6514;48.606;9.222;2022-12-07T07:18:49;1.30;99.90
12893;DHT22;6514;48.606;9.222;2022-12-07T07:21:16;1.30;99.90
12893;DHT22;6514;48.606;9.222;2022-12-07T07:23:43;1.40;99.90
12893;DHT22;6514;48.606;9.222;2022-12-07T07:26:11;1.30;99.90
12893;DHT22;6514;48.606;9.222;2022-12-07T07:28:38;1.30;99.90
12893;DHT22;6514;48.606;9.222;2022-12-07T07:31:05;1.40;99.90
12893;DHT22;6514;48.606;9.222;2022-12-07T07:33:32;1.40;99.90
12893;DHT22;6514;48.606;9.222;2022-12-07T07:35:59;1.40;99.90
12893;DHT22;6514;48.606;9.222;2022-12-07T07:38:26;1.50;99.90
12893;DHT22;6514;48.606;9.222;2022-12-07T07:40:53;1.50;99.90
12893;DHT22;6514;48.606;9.222;2022-12-07T07:43:21;1.60;99.90
12893;DHT22;6514;48.606;9.222;2022-12-07T07:45:48;1.60;99.90
12893;DHT22;6514;48.606;9.222;2022-12-07T07:48:15;1.70;99.90
12893;DHT22;6514;48.606;9.222;2022-12-07T07:50:42;1.70;99.90
12893;DHT22;6514;48.606;9.222;2022-12-07T07:53:09;1.80;99.90
12893;DHT22;6514;48.606;9.222;2022-12-07T07:55:36;1.90;99.90
12893;DHT22;6514;48.606;9.222;2022-12-07T07:58:02;1.90;99.90
12893;DHT22;6514;48.606;9.222;2022-12-07T08:00:31;2.00;99.90
12893;DHT22;6514;48.606;9.222;2022-12-07T08:02:58;2.00;99.90
12893;DHT22;6514;48.606;9.222;2022-12-07T08:05:24;2.10;99.90
12893;DHT22;6514;48.606;9.222;2022-12-07T08:07:51;2.10;99.90
12893;DHT22;6514;48.606;9.222;2022-12-07T08:10:18;2.20;99.90
12893;DHT22;6514;48.606;9.222;2022-12-07T08:12:45;2.20;99.90
12893;DHT22;6514;48.606;9.222;2022-12-07T08:15:31;2.30;99.90
12893;DHT22;6514;48.606;9.222;2022-12-07T08:17:58;2.40;99.90
12893;DHT22;6514;48.606;9.222;2022-12-07T08:20:25;2.50;99.90
12893;DHT22;6514;48.606;9.222;2022-12-07T08:22:52;2.50;99.90
12893;DHT22;6514;48.606;9.222;2022-12-07T08:25:19;2.60;99.90
12893;DHT22;6514;48.606;9.222;2022-12-07T08:27:47;2.70;99.90
12893;DHT22;6514;48.606;9.222;2022-12-07T08:30:15;2.70;99.90
12893;DHT22;6514;48.606;9.222;2022-12-07T08:32:44;2.80;99.90
12893;DHT22;6514;48.606;9.222;2022-12-07T08:35:11;2.90;99.90
12893;DHT22;6514;48.606;9.222;2022-12-07T08:37:38;2.90;99.90
12893;DHT22;6514;48.606;9.222;2022-12-07T08:40:07;3.00;99.90
12893;DHT22;6514;48.606;9.222;2022-12-07T08:42:34;3.00;99.90
12893;DHT22;6514;48.606;9.222;2022-12-07T08:45:07;3.00;99.90
12893;DHT22;6514;48.606;9.222;2022-12-07T08:47:34;3.10;99.90
12893;DHT22;6514;48.606;9.222;2022-12-07T08:50:06;3.20;99.90
12893;DHT22;6514;48.606;9.222;2022-12-07T08:52:34;3.20;99.90
12893;DHT22;6514;48.606;9.222;2022-12-07T08:55:01;3.30;99.90
12893;DHT22;6514;48.606;9.222;2022-12-07T08:57:29;3.30;99.90
12893;DHT22;6514;48.606;9.222;2022-12-07T08:59:57;3.70;99.90
12893;DHT22;6514;48.606;9.222;2022-12-07T09:02:24;3.40;99.90
12893;DHT22;6514;48.606;9.222;2022-12-07T09:04:51;3.50;99.90
12893;DHT22;6514;48.606;9.222;2022-12-07T09:07:19;3.50;99.90
12893;DHT22;6514;48.606;9.222;2022-12-07T09:09:46;3.60;99.90
12893;DHT22;6514;48.606;9.222;2022-12-07T09:12:13;3.70;99.90
12893;DHT22;6514;48.606;9.222;2022-12-07T09:14:40;3.70;99.90
12893;DHT22;6514;48.606;9.222;2022-12-07T09:17:08;3.80;99.90
12893;DHT22;6514;48.606;9.222;2022-12-07T09:19:35;3.90;99.90
12893;DHT22;6514;48.606;9.222;2022-12-07T09:22:03;4.00;99.90
12893;DHT22;6514;48.606;9.222;2022-12-07T09:24:32;4.00;99.90
12893;DHT22;6514;48.606;9.222;2022-12-07T09:26:59;4.10;99.90
12893;DHT22;6514;48.606;9.222;2022-12-07T09:29:26;4.20;99.90
12893;DHT22;6514;48.606;9.222;2022-12-07T09:31:53;4.20;99.90
12893;DHT22;6514;48.606;9.222;2022-12-07T09:34:20;4.20;99.90
12893;DHT22;6514;48.606;9.222;2022-12-07T09:36:47;4.30;99.90
12893;DHT22;6514;48.606;9.222;2022-12-07T09:39:13;4.40;99.90
12893;DHT22;6514;48.606;9.222;2022-12-07T09:41:43;4.50;99.90
12893;DHT22;6514;48.606;9.222;2022-12-07T09:44:13;4.50;99.90
12893;DHT22;6514;48.606;9.222;2022-12-07T09:46:42;4.70;99.90
12893;DHT22;6514;48.606;9.222;2022-12-07T09:49:12;4.60;99.90
12893;DHT22;6514;48.606;9.222;2022-12-07T09:51:40;4.60;99.90
12893;DHT22;6514;48.606;9.222;2022-12-07T09:54:08;4.60;99.90
12893;DHT22;6514;48.606;9.222;2022-12-07T09:56:38;4.60;99.90
12893;DHT22;6514;48.606;9.222;2022-12-07T09:59:12;4.80;99.90
12893;DHT22;6514;48.606;9.222;2022-12-07T10:01:46;4.80;99.90
12893;DHT22;6514;48.606;9.222;2022-12-07T10:04:16;4.90;99.90
12893;DHT22;6514;48.606;9.222;2022-12-07T10:06:44;5.00;99.90
12893;DHT22;6514;48.606;9.222;2022-12-07T10:09:15;5.00;99.90
12893;DHT22;6514;48.606;9.222;2022-12-07T10:11:59;5.00;99.90
12893;DHT22;6514;48.606;9.222;2022-12-07T10:14:30;5.10;99.90
12893;DHT22;6514;48.606;9.222;2022-12-07T10:16:57;5.10;99.90
12893;DHT22;6514;48.606;9.222;2022-12-07T10:19:26;5.30;99.90
12893;DHT22;6514;48.606;9.222;2022-12-07T10:22:00;5.30;99.90
12893;DHT22;6514;48.606;9.222;2022-12-07T10:24:28;5.30;99.90
12893;DHT22;6514;48.606;9.222;2022-12-07T10:26:55;5.30;99.90
12893;DHT22;6514;48.606;9.222;2022-12-07T10:29:24;5.30;99.90
12893;DHT22;6514;48.606;9.222;2022-12-07T10:31:54;5.30;99.90
12893;DHT22;6514;48.606;9.222;2022-12-07T10:34:24;5.30;99.90
12893;DHT22;6514;48.606;9.222;2022-12-07T10:36:52;5.30;99.90
12893;DHT22;6514;48.606;9.222;2022-12-07T10:39:20;5.30;99.90
12893;DHT22;6514;48.606;9.222;2022-12-07T10:41:55;5.40;99.90
12893;DHT22;6514;48.606;9.222;2022-12-07T10:44:24;5.50;99.90
12893;DHT22;6514;48.606;9.222;2022-12-07T10:47:13;5.50;99.90
12893;DHT22;6514;48.606;9.222;2022-12-07T10:53:14;5.60;99.90
12893;DHT22;6514;48.606;9.222;2022-12-07T10:55:56;5.70;99.90
12893;DHT22;6514;48.606;9.222;2022-12-07T10:58:39;5.80;99.90
12893;DHT22;6514;48.606;9.222;2022-12-07T11:01:16;5.90;99.90
12893;DHT22;6514;48.606;9.222;2022-12-07T11:04:15;5.80;99.90
12893;DHT22;6514;48.606;9.222;2022-12-07T11:06:48;5.80;99.90
12893;DHT22;6514;48.606;9.222;2022-12-07T11:09:43;5.80;99.90
12893;DHT22;6514;48.606;9.222;2022-12-07T11:12:20;5.90;99.90
12893;DHT22;6514;48.606;9.222;2022-12-07T11:14:55;5.90;99.90
12893;DHT22;6514;48.606;9.222;2022-12-07T11:17:30;6.10;99.90
12893;DHT22;6514;48.606;9.222;2022-12-07T11:20:15;6.00;99.90
12893;DHT22;6514;48.606;9.222;2022-12-07T11:22:51;6.10;99.90
12893;DHT22;6514;48.606;9.222;2022-12-07T11:25:29;6.00;99.90
12893;DHT22;6514;48.606;9.222;2022-12-07T11:28:08;6.10;99.90
12893;DHT22;6514;48.606;9.222;2022-12-07T11:30:44;6.10;99.90
12893;DHT22;6514;48.606;9.222;2022-12-07T11:33:18;6.20;99.90
12893;DHT22;6514;48.606;9.222;2022-12-07T11:35:57;6.00;99.90
12893;DHT22;6514;48.606;9.222;2022-12-07T11:38:33;6.10;99.90
12893;DHT22;6514;48.606;9.222;2022-12-07T11:41:04;6.00;99.90
12893;DHT22;6514;48.606;9.222;2022-12-07T11:43:50;6.00;99.90
12893;DHT22;6514;48.606;9.222;2022-12-07T11:46:19;6.00;99.90
12893;DHT22;6514;48.606;9.222;2022-12-07T11:48:54;6.00;99.90
12893;DHT22;6514;48.606;9.222;2022-12-07T11:51:23;6.00;99.90
12893;DHT22;6514;48.606;9.222;2022-12-07T11:53:55;6.00;99.90
12893;DHT22;6514;48.606;9.222;2022-12-07T11:56:26;6.10;99.90
12893;DHT22;6514;48.606;9.222;2022-12-07T11:58:57;6.10;99.90
12893;DHT22;6514;48.606;9.222;2022-12-07T12:01:31;6.10;99.90
12893;DHT22;6514;48.606;9.222;2022-12-07T12:04:06;6.20;99.90
12893;DHT22;6514;48.606;9.222;2022-12-07T12:06:35;6.30;99.90
12893;DHT22;6514;48.606;9.222;2022-12-07T12:09:05;6.30;99.90
12893;DHT22;6514;48.606;9.222;2022-12-07T12:12:07;6.30;99.90
12893;DHT22;6514;48.606;9.222;2022-12-07T12:14:47;6.30;99.90
12893;DHT22;6514;48.606;9.222;2022-12-07T12:20:14;6.20;99.90
12893;DHT22;6514;48.606;9.222;2022-12-07T12:22:48;6.10;99.90
12893;DHT22;6514;48.606;9.222;2022-12-07T12:25:22;6.00;99.90
12893;DHT22;6514;48.606;9.222;2022-12-07T12:27:52;5.90;99.90
12893;DHT22;6514;48.606;9.222;2022-12-07T12:30:35;5.90;99.90
12893;DHT22;6514;48.606;9.222;2022-12-07T12:33:14;5.90;99.90
12893;DHT22;6514;48.606;9.222;2022-12-07T12:35:42;5.80;99.90
12893;DHT22;6514;48.606;9.222;2022-12-07T12:38:29;5.90;99.90
12893;DHT22;6514;48.606;9.222;2022-12-07T12:40:57;5.90;99.90
12893;DHT22;6514;48.606;9.222;2022-12-07T12:43:54;6.00;99.90
12893;DHT22;6514;48.606;9.222;2022-12-07T12:46:51;6.00;99.90
12893;DHT22;6514;48.606;9.222;2022-12-07T12:49:42;6.00;99.90
12893;DHT22;6514;48.606;9.222;2022-12-07T12:55:18;6.00;99.90
12893;DHT22;6514;48.606;9.222;2022-12-07T12:57:48;5.90;99.90
12893;DHT22;6514;48.606;9.222;2022-12-07T13:00:35;5.90;99.90
12893;DHT22;6514;48.606;9.222;2022-12-07T13:03:01;5.90;99.90
12893;DHT22;6514;48.606;9.222;2022-12-07T13:05:30;5.80;99.90
12893;DHT22;6514;48.606;9.222;2022-12-07T13:08:00;5.80;99.90
12893;DHT22;6514;48.606;9.222;2022-12-07T13:10:40;5.80;99.90
12893;DHT22;6514;48.606;9.222;2022-12-07T13:13:33;5.80;99.90
12893;DHT22;6514;48.606;9.222;2022-12-07T13:22:50;5.90;99.90
12893;DHT22;6514;48.606;9.222;2022-12-07T13:25:30;5.90;99.90
12893;DHT22;6514;48.606;9.222;2022-12-07T13:28:02;5.80;99.90
12893;DHT22;6514;48.606;9.222;2022-12-07T13:30:44;5.80;99.90
12893;DHT22;6514;48.606;9.222;2022-12-07T13:33:12;5.90;99.90
12893;DHT22;6514;48.606;9.222;2022-12-07T13:35:39;5.80;99.90
12893;DHT22;6514;48.606;9.222;2022-12-07T13:38:21;5.80;99.90
12893;DHT22;6514;48.606;9.222;2022-12-07T13:41:00;5.70;99.90
12893;DHT22;6514;48.606;9.222;2022-12-07T13:43:29;5.70;99.90
12893;DHT22;6514;48.606;9.222;2022-12-07T13:45:56;5.70;99.90
12893;DHT22;6514;48.606;9.222;2022-12-07T13:48:28;5.60;99.90
12893;DHT22;6514;48.606;9.222;2022-12-07T13:50:59;5.60;99.90
12893;DHT22;6514;48.606;9.222;2022-12-07T13:53:26;5.60;99.90
12893;DHT22;6514;48.606;9.222;2022-12-07T13:55:56;5.60;99.90
12893;DHT22;6514;48.606;9.222;2022-12-07T13:58:23;5.60;99.90
12893;DHT22;6514;48.606;9.222;2022-12-07T14:00:52;5.70;99.90
12893;DHT22;6514;48.606;9.222;2022-12-07T14:03:27;5.70;99.90
12893;DHT22;6514;48.606;9.222;2022-12-07T14:06:25;5.70;99.90
12893;DHT22;6514;48.606;9.222;2022-12-07T14:09:14;5.70;99.90
12893;DHT22;6514;48.606;9.222;2022-12-07T14:11:43;5.60;99.90
12893;DHT22;6514;48.606;9.222;2022-12-07T14:14:15;5.50;99.90
12893;DHT22;6514;48.606;9.222;2022-12-07T14:16:59;5.50;99.90
12893;DHT22;6514;48.606;9.222;2022-12-07T14:19:45;5.40;99.90
12893;DHT22;6514;48.606;9.222;2022-12-07T14:22:28;5.40;99.90
12893;DHT22;6514;48.606;9.222;2022-12-07T14:25:18;5.30;99.90
12893;DHT22;6514;48.606;9.222;2022-12-07T14:27:51;5.30;99.90
12893;DHT22;6514;48.606;9.222;2022-12-07T14:30:22;5.20;99.90
12893;DHT22;6514;48.606;9.222;2022-12-07T14:32:52;5.20;99.90
12893;DHT22;6514;48.606;9.222;2022-12-07T14:35:19;5.20;99.90
12893;DHT22;6514;48.606;9.222;2022-12-07T14:37:48;5.10;99.90
12893;DHT22;6514;48.606;9.222;2022-12-07T14:40:17;5.10;99.90
12893;DHT22;6514;48.606;9.222;2022-12-07T14:42:45;5.00;99.90
12893;DHT22;6514;48.606;9.222;2022-12-07T14:45:15;5.10;99.90
12893;DHT22;6514;48.606;9.222;2022-12-07T14:47:43;5.00;99.90
12893;DHT22;6514;48.606;9.222;2022-12-07T14:50:14;4.90;99.90
12893;DHT22;6514;48.606;9.222;2022-12-07T14:52:42;4.90;99.90
12893;DHT22;6514;48.606;9.222;2022-12-07T14:55:22;4.90;99.90
12893;DHT22;6514;48.606;9.222;2022-12-07T14:57:49;4.90;99.90
12893;DHT22;6514;48.606;9.222;2022-12-07T15:00:17;4.90;99.90
12893;DHT22;6514;48.606;9.222;2022-12-07T15:02:46;4.80;99.90
12893;DHT22;6514;48.606;9.222;2022-12-07T15:05:14;4.80;99.90
12893;DHT22;6514;48.606;9.222;2022-12-07T15:07:41;3.40;99.90
12893;DHT22;6514;48.606;9.222;2022-12-07T15:10:14;4.70;99.90
12893;DHT22;6514;48.606;9.222;2022-12-07T15:12:42;4.60;99.90
12893;DHT22;6514;48.606;9.222;2022-12-07T15:15:09;4.50;99.90
12893;DHT22;6514;48.606;9.222;2022-12-07T15:17:36;4.50;99.90
12893;DHT22;6514;48.606;9.222;2022-12-07T15:20:04;4.50;99.90
12893;DHT22;6514;48.606;9.222;2022-12-07T15:22:32;4.40;99.90
12893;DHT22;6514;48.606;9.222;2022-12-07T15:24:59;4.40;99.90
12893;DHT22;6514;48.606;9.222;2022-12-07T15:27:27;4.40;99.90
12893;DHT22;6514;48.606;9.222;2022-12-07T15:29:54;4.40;99.90
12893;DHT22;6514;48.606;9.222;2022-12-07T15:32:21;4.30;99.90
12893;DHT22;6514;48.606;9.222;2022-12-07T15:34:48;4.30;99.90
12893;DHT22;6514;48.606;9.222;2022-12-07T15:37:15;4.20;99.90
12893;DHT22;6514;48.606;9.222;2022-12-07T15:39:44;4.20;99.90
12893;DHT22;6514;48.606;9.222;2022-12-07T15:42:11;4.20;99.90
12893;DHT22;6514;48.606;9.222;2022-12-07T15:44:38;4.10;99.90
12893;DHT22;6514;48.606;9.222;2022-12-07T15:47:22;4.10;99.90
12893;DHT22;6514;48.606;9.222;2022-12-07T15:49:49;4.00;99.90
12893;DHT22;6514;48.606;9.222;2022-12-07T15:52:16;4.00;99.90
12893;DHT22;6514;48.606;9.222;2022-12-07T15:54:46;3.90;99.90
12893;DHT22;6514;48.606;9.222;2022-12-07T15:57:14;3.80;99.90
12893;DHT22;6514;48.606;9.222;2022-12-07T15:59:41;3.80;99.90
12893;DHT22;6514;48.606;9.222;2022-12-07T16:02:09;3.70;99.90
12893;DHT22;6514;48.606;9.222;2022-12-07T16:04:36;3.70;99.90
12893;DHT22;6514;48.606;9.222;2022-12-07T16:07:03;3.70;99.90
12893;DHT22;6514;48.606;9.222;2022-12-07T16:09:30;3.60;99.90
12893;DHT22;6514;48.606;9.222;2022-12-07T16:11:59;3.60;99.90
12893;DHT22;6514;48.606;9.222;2022-12-07T16:14:25;3.50;99.90
12893;DHT22;6514;48.606;9.222;2022-12-07T16:16:52;3.50;99.90
12893;DHT22;6514;48.606;9.222;2022-12-07T16:19:19;3.50;99.90
12893;DHT22;6514;48.606;9.222;2022-12-07T16:21:46;3.40;99.90
12893;DHT22;6514;48.606;9.222;2022-12-07T16:24:13;3.40;99.90
12893;DHT22;6514;48.606;9.222;2022-12-07T16:26:40;3.40;99.90
12893;DHT22;6514;48.606;9.222;2022-12-07T16:29:11;3.40;99.90
12893;DHT22;6514;48.606;9.222;2022-12-07T16:31:38;3.30;99.90
12893;DHT22;6514;48.606;9.222;2022-12-07T16:34:05;3.30;99.90
12893;DHT22;6514;48.606;9.222;2022-12-07T16:36:32;3.30;99.90
12893;DHT22;6514;48.606;9.222;2022-12-07T16:39:00;3.20;99.90
12893;DHT22;6514;48.606;9.222;2022-12-07T16:41:27;3.20;99.90